sensor_id;sensor_type;location;lat;lon;timestamp;temperature;humidity
73277;DHT22;61501;43.316;5.372;2023-08-07T00:00:14;20.40;60.40
73277;DHT22;61501;43.316;5.372;2023-08-07T00:02:39;20.40;60.50
73277;DHT22;61501;43.316;5.372;2023-08-07T00:05:06;20.30;60.90
73277;DHT22;61501;43.316;5.372;2023-08-07T00:07:31;20.30;62.00
73277;DHT22;61501;43.316;5.372;2023-08-07T00:09:57;20.30;60.80
73277;DHT22;61501;43.316;5.372;2023-08-07T00:12:23;20.30;60.70
73277;DHT22;61501;43.316;5.372;2023-08-07T00:14:50;20.30;60.80
73277;DHT22;61501;43.316;5.372;2023-08-07T00:17:16;20.30;60.70
73277;DHT22;61501;43.316;5.372;2023-08-07T00:19:42;20.30;60.90
73277;DHT22;61501;43.316;5.372;2023-08-07T00:22:07;20.20;60.80
73277;DHT22;61501;43.316;5.372;2023-08-07T00:24:33;20.20;62.10
73277;DHT22;61501;43.316;5.372;2023-08-07T00:26:59;20.20;61.30
73277;DHT22;61501;43.316;5.372;2023-08-07T00:29:24;20.20;61.50
73277;DHT22;61501;43.316;5.372;2023-08-07T00:31:50;20.20;61.50
73277;DHT22;61501;43.316;5.372;2023-08-07T00:34:15;20.10;61.50
73277;DHT22;61501;43.316;5.372;2023-08-07T00:36:41;20.20;61.40
73277;DHT22;61501;43.316;5.372;2023-08-07T00:39:07;20.10;61.70
73277;DHT22;61501;43.316;5.372;2023-08-07T00:41:33;20.10;61.80
73277;DHT22;61501;43.316;5.372;2023-08-07T00:44:00;20.10;62.20
73277;DHT22;61501;43.316;5.372;2023-08-07T00:46:27;20.10;62.00
73277;DHT22;61501;43.316;5.372;2023-08-07T00:48:53;20.10;62.00
73277;DHT22;61501;43.316;5.372;2023-08-07T00:51:20;20.00;62.50
73277;DHT22;61501;43.316;5.372;2023-08-07T00:53:47;20.00;62.70
73277;DHT22;61501;43.316;5.372;2023-08-07T00:56:13;20.00;62.90
73277;DHT22;61501;43.316;5.372;2023-08-07T00:58:39;20.00;62.80
73277;DHT22;61501;43.316;5.372;2023-08-07T01:01:06;20.00;63.20
73277;DHT22;61501;43.316;5.372;2023-08-07T01:03:32;19.90;63.00
73277;DHT22;61501;43.316;5.372;2023-08-07T01:05:57;19.90;63.20
73277;DHT22;61501;43.316;5.372;2023-08-07T01:08:26;19.90;63.10
73277;DHT22;61501;43.316;5.372;2023-08-07T01:16:19;19.80;63.60
73277;DHT22;61501;43.316;5.372;2023-08-07T01:18:47;19.80;63.80
73277;DHT22;61501;43.316;5.372;2023-08-07T01:21:18;19.80;64.10
73277;DHT22;61501;43.316;5.372;2023-08-07T01:23:46;19.80;63.90
73277;DHT22;61501;43.316;5.372;2023-08-07T01:26:11;19.70;64.10
73277;DHT22;61501;43.316;5.372;2023-08-07T01:28:42;19.80;64.10
73277;DHT22;61501;43.316;5.372;2023-08-07T01:31:14;19.70;64.20
73277;DHT22;61501;43.316;5.372;2023-08-07T01:34:01;19.70;64.30
73277;DHT22;61501;43.316;5.372;2023-08-07T01:36:28;19.70;64.30
73277;DHT22;61501;43.316;5.372;2023-08-07T01:38:57;19.70;64.10
73277;DHT22;61501;43.316;5.372;2023-08-07T01:41:24;19.60;64.00
73277;DHT22;61501;43.316;5.372;2023-08-07T01:43:51;19.60;64.10
73277;DHT22;61501;43.316;5.372;2023-08-07T01:46:18;19.60;64.50
73277;DHT22;61501;43.316;5.372;2023-08-07T01:48:44;19.60;64.40
73277;DHT22;61501;43.316;5.372;2023-08-07T01:51:09;19.60;64.80
73277;DHT22;61501;43.316;5.372;2023-08-07T01:53:35;19.60;65.10
73277;DHT22;61501;43.316;5.372;2023-08-07T01:56:01;19.60;64.90
73277;DHT22;61501;43.316;5.372;2023-08-07T01:58:26;19.50;65.20
73277;DHT22;61501;43.316;5.372;2023-08-07T02:00:53;19.50;65.60
73277;DHT22;61501;43.316;5.372;2023-08-07T02:03:19;19.50;65.30
73277;DHT22;61501;43.316;5.372;2023-08-07T02:05:46;19.50;65.40
73277;DHT22;61501;43.316;5.372;2023-08-07T02:08:12;19.50;65.40
73277;DHT22;61501;43.316;5.372;2023-08-07T02:10:37;19.50;65.30
73277;DHT22;61501;43.316;5.372;2023-08-07T02:13:03;19.50;65.40
73277;DHT22;61501;43.316;5.372;2023-08-07T02:15:29;19.40;65.20
73277;DHT22;61501;43.316;5.372;2023-08-07T02:17:54;19.40;65.70
73277;DHT22;61501;43.316;5.372;2023-08-07T02:20:20;19.40;65.90
73277;DHT22;61501;43.316;5.372;2023-08-07T02:22:46;19.40;65.60
73277;DHT22;61501;43.316;5.372;2023-08-07T02:25:11;19.30;66.00
73277;DHT22;61501;43.316;5.372;2023-08-07T02:27:37;19.40;66.10
73277;DHT22;61501;43.316;5.372;2023-08-07T02:30:03;19.30;65.80
73277;DHT22;61501;43.316;5.372;2023-08-07T02:32:29;19.30;66.10
73277;DHT22;61501;43.316;5.372;2023-08-07T02:34:55;19.30;66.40
73277;DHT22;61501;43.316;5.372;2023-08-07T02:37:21;19.30;66.60
73277;DHT22;61501;43.316;5.372;2023-08-07T02:39:46;19.30;66.50
73277;DHT22;61501;43.316;5.372;2023-08-07T02:42:12;19.30;66.90
73277;DHT22;61501;43.316;5.372;2023-08-07T02:44:38;19.20;67.00
73277;DHT22;61501;43.316;5.372;2023-08-07T02:47:04;19.20;67.50
73277;DHT22;61501;43.316;5.372;2023-08-07T02:49:30;19.30;67.90
73277;DHT22;61501;43.316;5.372;2023-08-07T02:51:55;19.20;68.00
73277;DHT22;61501;43.316;5.372;2023-08-07T02:54:21;19.20;68.40
73277;DHT22;61501;43.316;5.372;2023-08-07T02:56:46;19.20;68.60
73277;DHT22;61501;43.316;5.372;2023-08-07T02:59:14;19.20;68.90
73277;DHT22;61501;43.316;5.372;2023-08-07T03:01:40;19.20;69.20
73277;DHT22;61501;43.316;5.372;2023-08-07T03:04:06;19.20;69.50
73277;DHT22;61501;43.316;5.372;2023-08-07T03:06:31;19.10;69.50
73277;DHT22;61501;43.316;5.372;2023-08-07T03:08:57;19.10;69.70
73277;DHT22;61501;43.316;5.372;2023-08-07T03:11:23;19.10;69.30
73277;DHT22;61501;43.316;5.372;2023-08-07T03:13:48;19.10;69.80
73277;DHT22;61501;43.316;5.372;2023-08-07T03:16:15;19.10;69.90
73277;DHT22;61501;43.316;5.372;2023-08-07T03:18:40;19.10;69.80
73277;DHT22;61501;43.316;5.372;2023-08-07T03:21:06;19.10;69.90
73277;DHT22;61501;43.316;5.372;2023-08-07T03:23:32;19.00;70.30
73277;DHT22;61501;43.316;5.372;2023-08-07T03:26:05;19.00;70.30
73277;DHT22;61501;43.316;5.372;2023-08-07T03:28:32;19.00;70.60
73277;DHT22;61501;43.316;5.372;2023-08-07T03:30:58;19.00;70.70
73277;DHT22;61501;43.316;5.372;2023-08-07T03:33:23;19.00;70.80
73277;DHT22;61501;43.316;5.372;2023-08-07T03:35:49;19.00;70.20
73277;DHT22;61501;43.316;5.372;2023-08-07T03:38:15;19.00;70.20
73277;DHT22;61501;43.316;5.372;2023-08-07T03:40:40;19.00;70.20
73277;DHT22;61501;43.316;5.372;2023-08-07T03:43:06;18.90;70.30
73277;DHT22;61501;43.316;5.372;2023-08-07T03:45:32;18.90;69.70
73277;DHT22;61501;43.316;5.372;2023-08-07T03:48:06;18.90;69.80
73277;DHT22;61501;43.316;5.372;2023-08-07T03:50:32;18.90;69.80
73277;DHT22;61501;43.316;5.372;2023-08-07T03:53:00;18.80;69.70
73277;DHT22;61501;43.316;5.372;2023-08-07T03:55:26;18.90;69.50
73277;DHT22;61501;43.316;5.372;2023-08-07T03:57:52;18.80;69.90
73277;DHT22;61501;43.316;5.372;2023-08-07T04:00:17;18.80;70.10
73277;DHT22;61501;43.316;5.372;2023-08-07T04:02:44;18.80;69.70
73277;DHT22;61501;43.316;5.372;2023-08-07T04:05:10;18.80;69.50
73277;DHT22;61501;43.316;5.372;2023-08-07T04:07:36;18.80;69.70
73277;DHT22;61501;43.316;5.372;2023-08-07T04:10:01;18.80;69.90
73277;DHT22;61501;43.316;5.372;2023-08-07T04:12:27;18.80;69.50
73277;DHT22;61501;43.316;5.372;2023-08-07T04:14:53;18.80;69.60
73277;DHT22;61501;43.316;5.372;2023-08-07T04:17:18;18.80;69.40
73277;DHT22;61501;43.316;5.372;2023-08-07T04:19:44;18.80;69.90
73277;DHT22;61501;43.316;5.372;2023-08-07T04:22:10;18.80;69.60
73277;DHT22;61501;43.316;5.372;2023-08-07T04:24:35;18.80;69.90
73277;DHT22;61501;43.316;5.372;2023-08-07T04:27:01;18.80;69.80
73277;DHT22;61501;43.316;5.372;2023-08-07T04:29:27;18.80;69.50
73277;DHT22;61501;43.316;5.372;2023-08-07T04:31:52;18.80;69.70
73277;DHT22;61501;43.316;5.372;2023-08-07T04:34:18;18.70;69.30
73277;DHT22;61501;43.316;5.372;2023-08-07T04:36:44;18.70;69.70
73277;DHT22;61501;43.316;5.372;2023-08-07T04:39:10;18.70;69.70
73277;DHT22;61501;43.316;5.372;2023-08-07T04:41:37;18.70;70.10
73277;DHT22;61501;43.316;5.372;2023-08-07T04:44:02;18.70;70.10
73277;DHT22;61501;43.316;5.372;2023-08-07T04:46:28;18.70;69.90
73277;DHT22;61501;43.316;5.372;2023-08-07T04:48:54;18.70;69.90
73277;DHT22;61501;43.316;5.372;2023-08-07T04:51:20;18.70;69.70
73277;DHT22;61501;43.316;5.372;2023-08-07T04:53:45;18.70;69.80
73277;DHT22;61501;43.316;5.372;2023-08-07T04:56:11;18.60;69.80
73277;DHT22;61501;43.316;5.372;2023-08-07T04:58:37;18.70;69.80
73277;DHT22;61501;43.316;5.372;2023-08-07T05:01:02;18.70;70.50
73277;DHT22;61501;43.316;5.372;2023-08-07T05:03:28;18.70;70.90
73277;DHT22;61501;43.316;5.372;2023-08-07T05:06:02;18.70;71.30
73277;DHT22;61501;43.316;5.372;2023-08-07T05:08:28;18.70;71.70
73277;DHT22;61501;43.316;5.372;2023-08-07T05:10:54;18.70;72.00
73277;DHT22;61501;43.316;5.372;2023-08-07T05:13:19;18.70;72.00
73277;DHT22;61501;43.316;5.372;2023-08-07T05:15:47;18.70;70.80
73277;DHT22;61501;43.316;5.372;2023-08-07T05:18:13;18.70;71.40
73277;DHT22;61501;43.316;5.372;2023-08-07T05:20:38;18.70;71.70
73277;DHT22;61501;43.316;5.372;2023-08-07T05:23:04;18.80;71.70
73277;DHT22;61501;43.316;5.372;2023-08-07T05:25:30;18.70;71.30
73277;DHT22;61501;43.316;5.372;2023-08-07T05:27:56;18.70;71.70
73277;DHT22;61501;43.316;5.372;2023-08-07T05:30:22;18.70;71.30
73277;DHT22;61501;43.316;5.372;2023-08-07T05:32:47;18.70;71.60
73277;DHT22;61501;43.316;5.372;2023-08-07T05:35:13;18.70;71.70
73277;DHT22;61501;43.316;5.372;2023-08-07T05:37:39;18.80;71.90
73277;DHT22;61501;43.316;5.372;2023-08-07T05:40:05;18.80;72.00
73277;DHT22;61501;43.316;5.372;2023-08-07T05:42:31;18.80;71.90
73277;DHT22;61501;43.316;5.372;2023-08-07T05:44:57;18.80;72.50
73277;DHT22;61501;43.316;5.372;2023-08-07T05:47:23;18.70;72.40
73277;DHT22;61501;43.316;5.372;2023-08-07T05:49:48;18.70;72.30
73277;DHT22;61501;43.316;5.372;2023-08-07T05:52:14;18.80;72.50
73277;DHT22;61501;43.316;5.372;2023-08-07T05:54:40;18.70;72.20
73277;DHT22;61501;43.316;5.372;2023-08-07T05:57:06;18.80;71.70
73277;DHT22;61501;43.316;5.372;2023-08-07T05:59:31;18.70;72.00
73277;DHT22;61501;43.316;5.372;2023-08-07T06:01:59;18.90;71.20
73277;DHT22;61501;43.316;5.372;2023-08-07T06:04:25;18.90;71.10
73277;DHT22;61501;43.316;5.372;2023-08-07T06:06:51;18.90;70.70
73277;DHT22;61501;43.316;5.372;2023-08-07T06:09:16;19.00;70.70
73277;DHT22;61501;43.316;5.372;2023-08-07T06:11:42;19.00;68.70
73277;DHT22;61501;43.316;5.372;2023-08-07T06:14:08;19.10;69.20
73277;DHT22;61501;43.316;5.372;2023-08-07T06:16:34;19.20;68.60
73277;DHT22;61501;43.316;5.372;2023-08-07T06:18:59;19.20;68.20
73277;DHT22;61501;43.316;5.372;2023-08-07T06:21:25;19.20;68.00
73277;DHT22;61501;43.316;5.372;2023-08-07T06:23:53;19.30;67.00
73277;DHT22;61501;43.316;5.372;2023-08-07T06:26:19;19.20;67.40
73277;DHT22;61501;43.316;5.372;2023-08-07T06:28:45;19.20;67.20
73277;DHT22;61501;43.316;5.372;2023-08-07T06:31:11;19.20;67.20
73277;DHT22;61501;43.316;5.372;2023-08-07T06:33:37;19.20;66.20
73277;DHT22;61501;43.316;5.372;2023-08-07T06:36:03;19.20;66.10
73277;DHT22;61501;43.316;5.372;2023-08-07T06:38:30;19.30;67.20
73277;DHT22;61501;43.316;5.372;2023-08-07T06:40:56;19.30;65.90
73277;DHT22;61501;43.316;5.372;2023-08-07T06:43:21;19.40;66.50
73277;DHT22;61501;43.316;5.372;2023-08-07T06:45:54;19.40;66.10
73277;DHT22;61501;43.316;5.372;2023-08-07T06:48:20;19.50;65.70
73277;DHT22;61501;43.316;5.372;2023-08-07T06:50:49;19.60;65.20
73277;DHT22;61501;43.316;5.372;2023-08-07T06:53:16;19.60;65.40
73277;DHT22;61501;43.316;5.372;2023-08-07T06:55:42;19.60;65.50
73277;DHT22;61501;43.316;5.372;2023-08-07T06:58:08;19.60;65.20
73277;DHT22;61501;43.316;5.372;2023-08-07T07:00:34;19.60;65.20
73277;DHT22;61501;43.316;5.372;2023-08-07T07:03:01;19.60;65.10
73277;DHT22;61501;43.316;5.372;2023-08-07T07:05:27;19.70;64.80
73277;DHT22;61501;43.316;5.372;2023-08-07T07:07:53;19.70;65.70
73277;DHT22;61501;43.316;5.372;2023-08-07T07:10:20;19.70;65.40
73277;DHT22;61501;43.316;5.372;2023-08-07T07:12:46;19.80;64.90
73277;DHT22;61501;43.316;5.372;2023-08-07T07:15:11;19.80;65.00
73277;DHT22;61501;43.316;5.372;2023-08-07T07:17:37;19.90;65.00
73277;DHT22;61501;43.316;5.372;2023-08-07T07:20:03;19.80;64.70
73277;DHT22;61501;43.316;5.372;2023-08-07T07:22:29;19.80;64.90
73277;DHT22;61501;43.316;5.372;2023-08-07T07:24:55;19.90;64.80
73277;DHT22;61501;43.316;5.372;2023-08-07T07:27:21;19.90;63.90
73277;DHT22;61501;43.316;5.372;2023-08-07T07:29:48;20.00;64.30
73277;DHT22;61501;43.316;5.372;2023-08-07T07:32:14;20.00;64.30
73277;DHT22;61501;43.316;5.372;2023-08-07T07:34:39;20.10;64.20
73277;DHT22;61501;43.316;5.372;2023-08-07T07:37:05;20.00;65.30
73277;DHT22;61501;43.316;5.372;2023-08-07T07:39:31;20.00;64.90
73277;DHT22;61501;43.316;5.372;2023-08-07T07:41:57;20.00;64.60
73277;DHT22;61501;43.316;5.372;2023-08-07T07:44:22;20.10;64.00
73277;DHT22;61501;43.316;5.372;2023-08-07T07:46:48;20.10;63.80
73277;DHT22;61501;43.316;5.372;2023-08-07T07:49:14;20.20;63.00
73277;DHT22;61501;43.316;5.372;2023-08-07T07:51:40;20.30;63.70
73277;DHT22;61501;43.316;5.372;2023-08-07T07:54:06;20.30;63.60
73277;DHT22;61501;43.316;5.372;2023-08-07T07:56:31;20.30;63.50
73277;DHT22;61501;43.316;5.372;2023-08-07T07:58:57;20.40;63.60
73277;DHT22;61501;43.316;5.372;2023-08-07T08:01:23;20.40;63.50
73277;DHT22;61501;43.316;5.372;2023-08-07T08:03:49;20.40;63.00
73277;DHT22;61501;43.316;5.372;2023-08-07T08:06:14;20.40;62.80
73277;DHT22;61501;43.316;5.372;2023-08-07T08:08:40;20.50;62.00
73277;DHT22;61501;43.316;5.372;2023-08-07T08:11:07;20.60;62.50
73277;DHT22;61501;43.316;5.372;2023-08-07T08:13:33;20.70;61.90
73277;DHT22;61501;43.316;5.372;2023-08-07T08:16:01;20.80;61.30
73277;DHT22;61501;43.316;5.372;2023-08-07T08:18:26;20.80;61.20
73277;DHT22;61501;43.316;5.372;2023-08-07T08:20:53;20.80;58.70
73277;DHT22;61501;43.316;5.372;2023-08-07T08:23:19;20.90;58.10
73277;DHT22;61501;43.316;5.372;2023-08-07T08:25:44;20.90;57.00
73277;DHT22;61501;43.316;5.372;2023-08-07T08:28:10;21.00;58.60
73277;DHT22;61501;43.316;5.372;2023-08-07T08:30:36;21.10;58.30
73277;DHT22;61501;43.316;5.372;2023-08-07T08:33:01;21.10;55.80
73277;DHT22;61501;43.316;5.372;2023-08-07T08:35:27;21.30;54.80
73277;DHT22;61501;43.316;5.372;2023-08-07T08:37:53;21.20;55.20
73277;DHT22;61501;43.316;5.372;2023-08-07T08:40:18;21.30;54.90
73277;DHT22;61501;43.316;5.372;2023-08-07T08:42:45;21.40;55.90
73277;DHT22;61501;43.316;5.372;2023-08-07T08:45:13;21.40;52.30
73277;DHT22;61501;43.316;5.372;2023-08-07T08:47:39;21.50;51.90
73277;DHT22;61501;43.316;5.372;2023-08-07T08:50:09;21.50;51.10
73277;DHT22;61501;43.316;5.372;2023-08-07T08:52:38;21.60;50.60
73277;DHT22;61501;43.316;5.372;2023-08-07T08:55:04;21.70;50.10
73277;DHT22;61501;43.316;5.372;2023-08-07T08:57:33;21.80;49.90
73277;DHT22;61501;43.316;5.372;2023-08-07T09:00:00;21.80;49.40
73277;DHT22;61501;43.316;5.372;2023-08-07T09:02:27;21.80;49.80
73277;DHT22;61501;43.316;5.372;2023-08-07T09:04:53;21.80;49.20
73277;DHT22;61501;43.316;5.372;2023-08-07T09:07:20;21.90;49.30
73277;DHT22;61501;43.316;5.372;2023-08-07T09:09:46;21.90;49.10
73277;DHT22;61501;43.316;5.372;2023-08-07T09:12:26;22.00;48.20
73277;DHT22;61501;43.316;5.372;2023-08-07T09:14:58;22.10;47.40
73277;DHT22;61501;43.316;5.372;2023-08-07T09:17:25;22.00;48.00
73277;DHT22;61501;43.316;5.372;2023-08-07T09:19:52;22.20;47.90
73277;DHT22;61501;43.316;5.372;2023-08-07T09:22:19;22.10;46.30
73277;DHT22;61501;43.316;5.372;2023-08-07T09:24:45;22.10;45.90
73277;DHT22;61501;43.316;5.372;2023-08-07T09:27:11;22.10;45.50
73277;DHT22;61501;43.316;5.372;2023-08-07T09:29:39;22.10;46.50
73277;DHT22;61501;43.316;5.372;2023-08-07T09:32:09;22.10;46.30
73277;DHT22;61501;43.316;5.372;2023-08-07T09:34:41;22.30;46.20
73277;DHT22;61501;43.316;5.372;2023-08-07T09:37:08;22.50;45.40
73277;DHT22;61501;43.316;5.372;2023-08-07T09:39:37;22.40;44.60
73277;DHT22;61501;43.316;5.372;2023-08-07T09:42:14;22.40;45.30
73277;DHT22;61501;43.316;5.372;2023-08-07T09:44:41;22.40;43.80
73277;DHT22;61501;43.316;5.372;2023-08-07T09:47:17;22.50;44.80
73277;DHT22;61501;43.316;5.372;2023-08-07T09:49:44;22.50;45.30
73277;DHT22;61501;43.316;5.372;2023-08-07T09:52:11;22.60;45.10
73277;DHT22;61501;43.316;5.372;2023-08-07T09:54:41;22.50;45.30
73277;DHT22;61501;43.316;5.372;2023-08-07T09:57:07;22.70;44.80
73277;DHT22;61501;43.316;5.372;2023-08-07T09:59:33;22.80;44.60
73277;DHT22;61501;43.316;5.372;2023-08-07T10:02:01;22.70;44.00
73277;DHT22;61501;43.316;5.372;2023-08-07T10:04:30;22.70;42.90
73277;DHT22;61501;43.316;5.372;2023-08-07T10:06:56;22.80;43.30
73277;DHT22;61501;43.316;5.372;2023-08-07T10:09:22;22.90;43.60
73277;DHT22;61501;43.316;5.372;2023-08-07T10:11:51;23.00;42.80
73277;DHT22;61501;43.316;5.372;2023-08-07T10:14:18;22.90;42.70
73277;DHT22;61501;43.316;5.372;2023-08-07T10:16:45;23.00;43.90
73277;DHT22;61501;43.316;5.372;2023-08-07T10:19:11;23.00;43.70
73277;DHT22;61501;43.316;5.372;2023-08-07T10:21:39;23.10;43.40
73277;DHT22;61501;43.316;5.372;2023-08-07T10:24:06;23.20;42.30
73277;DHT22;61501;43.316;5.372;2023-08-07T10:26:39;23.30;42.70
73277;DHT22;61501;43.316;5.372;2023-08-07T10:29:14;23.40;42.00
73277;DHT22;61501;43.316;5.372;2023-08-07T10:31:41;23.20;41.60
73277;DHT22;61501;43.316;5.372;2023-08-07T10:34:08;23.10;41.50
73277;DHT22;61501;43.316;5.372;2023-08-07T10:36:35;23.20;42.10
73277;DHT22;61501;43.316;5.372;2023-08-07T10:39:15;23.30;40.90
73277;DHT22;61501;43.316;5.372;2023-08-07T10:41:45;23.50;40.40
73277;DHT22;61501;43.316;5.372;2023-08-07T10:44:20;23.50;39.50
73277;DHT22;61501;43.316;5.372;2023-08-07T10:46:54;23.70;39.40
73277;DHT22;61501;43.316;5.372;2023-08-07T10:49:46;23.80;39.20
73277;DHT22;61501;43.316;5.372;2023-08-07T10:52:13;23.90;39.50
73277;DHT22;61501;43.316;5.372;2023-08-07T10:54:46;24.00;38.50
73277;DHT22;61501;43.316;5.372;2023-08-07T10:57:14;24.00;38.60
73277;DHT22;61501;43.316;5.372;2023-08-07T11:02:29;23.90;38.30
73277;DHT22;61501;43.316;5.372;2023-08-07T11:04:55;23.90;38.60
73277;DHT22;61501;43.316;5.372;2023-08-07T11:07:29;23.70;38.20
73277;DHT22;61501;43.316;5.372;2023-08-07T11:09:56;23.80;38.70
73277;DHT22;61501;43.316;5.372;2023-08-07T11:12:28;23.80;38.70
73277;DHT22;61501;43.316;5.372;2023-08-07T11:14:55;23.90;38.50
73277;DHT22;61501;43.316;5.372;2023-08-07T11:17:25;23.80;38.60
73277;DHT22;61501;43.316;5.372;2023-08-07T11:19:51;23.80;38.80
73277;DHT22;61501;43.316;5.372;2023-08-07T11:22:17;23.90;38.40
73277;DHT22;61501;43.316;5.372;2023-08-07T11:24:43;23.90;38.60
73277;DHT22;61501;43.316;5.372;2023-08-07T11:27:08;23.80;38.80
73277;DHT22;61501;43.316;5.372;2023-08-07T11:29:34;23.90;38.70
73277;DHT22;61501;43.316;5.372;2023-08-07T11:32:00;23.90;38.40
73277;DHT22;61501;43.316;5.372;2023-08-07T11:34:25;24.00;38.40
73277;DHT22;61501;43.316;5.372;2023-08-07T11:36:51;23.90;37.80
73277;DHT22;61501;43.316;5.372;2023-08-07T11:39:17;24.00;37.60
73277;DHT22;61501;43.316;5.372;2023-08-07T11:41:45;24.10;38.30
73277;DHT22;61501;43.316;5.372;2023-08-07T11:44:11;24.30;38.10
73277;DHT22;61501;43.316;5.372;2023-08-07T11:46:36;24.40;37.30
73277;DHT22;61501;43.316;5.372;2023-08-07T11:49:02;24.20;36.80
73277;DHT22;61501;43.316;5.372;2023-08-07T11:51:32;24.20;37.20
73277;DHT22;61501;43.316;5.372;2023-08-07T11:53:58;24.20;37.00
73277;DHT22;61501;43.316;5.372;2023-08-07T11:56:25;24.30;37.00
73277;DHT22;61501;43.316;5.372;2023-08-07T11:58:51;24.40;36.50
73277;DHT22;61501;43.316;5.372;2023-08-07T12:01:20;24.40;36.30
73277;DHT22;61501;43.316;5.372;2023-08-07T12:03:52;24.40;37.00
73277;DHT22;61501;43.316;5.372;2023-08-07T12:06:18;24.80;37.30
73277;DHT22;61501;43.316;5.372;2023-08-07T12:08:44;25.10;36.30
73277;DHT22;61501;43.316;5.372;2023-08-07T12:11:11;25.10;35.90
73277;DHT22;61501;43.316;5.372;2023-08-07T12:13:40;25.20;34.90
73277;DHT22;61501;43.316;5.372;2023-08-07T12:16:06;25.60;35.30
73277;DHT22;61501;43.316;5.372;2023-08-07T12:18:32;25.80;34.70
73277;DHT22;61501;43.316;5.372;2023-08-07T12:21:00;25.90;35.00
73277;DHT22;61501;43.316;5.372;2023-08-07T12:23:26;25.80;35.10
73277;DHT22;61501;43.316;5.372;2023-08-07T12:25:52;26.20;34.30
73277;DHT22;61501;43.316;5.372;2023-08-07T12:28:18;26.80;34.00
73277;DHT22;61501;43.316;5.372;2023-08-07T12:30:47;27.20;32.80
73277;DHT22;61501;43.316;5.372;2023-08-07T12:33:14;26.60;32.30
73277;DHT22;61501;43.316;5.372;2023-08-07T12:35:40;26.50;33.20
73277;DHT22;61501;43.316;5.372;2023-08-07T12:38:06;26.90;32.40
73277;DHT22;61501;43.316;5.372;2023-08-07T12:40:32;27.40;31.30
73277;DHT22;61501;43.316;5.372;2023-08-07T12:42:58;27.50;31.40
73277;DHT22;61501;43.316;5.372;2023-08-07T12:45:25;27.50;32.30
73277;DHT22;61501;43.316;5.372;2023-08-07T12:47:50;27.50;31.90
73277;DHT22;61501;43.316;5.372;2023-08-07T12:50:16;27.40;31.50
73277;DHT22;61501;43.316;5.372;2023-08-07T12:52:42;27.00;32.20
73277;DHT22;61501;43.316;5.372;2023-08-07T12:55:08;26.70;32.60
73277;DHT22;61501;43.316;5.372;2023-08-07T12:57:34;27.00;32.00
73277;DHT22;61501;43.316;5.372;2023-08-07T12:59:59;27.30;31.10
73277;DHT22;61501;43.316;5.372;2023-08-07T13:02:25;26.70;32.00
73277;DHT22;61501;43.316;5.372;2023-08-07T13:04:50;27.30;31.00
73277;DHT22;61501;43.316;5.372;2023-08-07T13:07:17;27.40;31.80
73277;DHT22;61501;43.316;5.372;2023-08-07T13:09:43;27.40;30.80
73277;DHT22;61501;43.316;5.372;2023-08-07T13:12:09;27.90;30.60
73277;DHT22;61501;43.316;5.372;2023-08-07T13:14:34;27.90;30.80
73277;DHT22;61501;43.316;5.372;2023-08-07T13:17:00;27.80;31.60
73277;DHT22;61501;43.316;5.372;2023-08-07T13:19:26;27.80;31.50
73277;DHT22;61501;43.316;5.372;2023-08-07T13:21:51;27.90;30.70
73277;DHT22;61501;43.316;5.372;2023-08-07T13:24:17;27.70;30.30
73277;DHT22;61501;43.316;5.372;2023-08-07T13:26:43;27.50;31.90
73277;DHT22;61501;43.316;5.372;2023-08-07T13:29:11;28.10;31.90
73277;DHT22;61501;43.316;5.372;2023-08-07T13:31:37;28.30;31.50
73277;DHT22;61501;43.316;5.372;2023-08-07T13:34:03;27.80;31.10
73277;DHT22;61501;43.316;5.372;2023-08-07T13:36:34;27.90;31.00
73277;DHT22;61501;43.316;5.372;2023-08-07T13:38:59;28.00;30.20
73277;DHT22;61501;43.316;5.372;2023-08-07T13:41:26;28.30;30.20
73277;DHT22;61501;43.316;5.372;2023-08-07T13:43:52;28.60;29.90
73277;DHT22;61501;43.316;5.372;2023-08-07T13:46:17;28.70;28.70
73277;DHT22;61501;43.316;5.372;2023-08-07T13:48:44;27.80;29.60
73277;DHT22;61501;43.316;5.372;2023-08-07T13:51:10;27.80;29.90
73277;DHT22;61501;43.316;5.372;2023-08-07T13:53:36;27.80;30.20
73277;DHT22;61501;43.316;5.372;2023-08-07T13:56:02;27.70;30.30
73277;DHT22;61501;43.316;5.372;2023-08-07T13:58:27;27.70;29.70
73277;DHT22;61501;43.316;5.372;2023-08-07T14:00:53;27.90;29.40
73277;DHT22;61501;43.316;5.372;2023-08-07T14:03:19;27.50;29.80
73277;DHT22;61501;43.316;5.372;2023-08-07T14:05:45;27.80;30.40
73277;DHT22;61501;43.316;5.372;2023-08-07T14:08:11;28.00;30.00
73277;DHT22;61501;43.316;5.372;2023-08-07T14:10:37;27.80;30.20
73277;DHT22;61501;43.316;5.372;2023-08-07T14:13:04;28.10;30.00
73277;DHT22;61501;43.316;5.372;2023-08-07T14:15:31;28.50;30.30
73277;DHT22;61501;43.316;5.372;2023-08-07T14:17:56;28.60;30.00
73277;DHT22;61501;43.316;5.372;2023-08-07T14:20:23;28.90;29.50
73277;DHT22;61501;43.316;5.372;2023-08-07T14:22:49;29.20;28.50
73277;DHT22;61501;43.316;5.372;2023-08-07T14:25:15;28.70;29.00
73277;DHT22;61501;43.316;5.372;2023-08-07T14:27:41;29.00;28.40
73277;DHT22;61501;43.316;5.372;2023-08-07T14:30:07;28.40;28.90
73277;DHT22;61501;43.316;5.372;2023-08-07T14:32:33;28.70;28.60
73277;DHT22;61501;43.316;5.372;2023-08-07T14:34:58;28.40;28.70
73277;DHT22;61501;43.316;5.372;2023-08-07T14:37:24;28.10;29.30
73277;DHT22;61501;43.316;5.372;2023-08-07T14:39:50;28.50;28.80
73277;DHT22;61501;43.316;5.372;2023-08-07T14:42:15;28.50;28.90
73277;DHT22;61501;43.316;5.372;2023-08-07T14:44:41;28.20;29.60
73277;DHT22;61501;43.316;5.372;2023-08-07T14:47:07;28.50;28.30
73277;DHT22;61501;43.316;5.372;2023-08-07T14:49:32;28.60;28.00
73277;DHT22;61501;43.316;5.372;2023-08-07T14:51:58;28.50;28.50
73277;DHT22;61501;43.316;5.372;2023-08-07T14:54:24;28.70;28.60
73277;DHT22;61501;43.316;5.372;2023-08-07T14:56:49;28.80;28.10
73277;DHT22;61501;43.316;5.372;2023-08-07T14:59:15;28.60;27.90
73277;DHT22;61501;43.316;5.372;2023-08-07T15:01:41;28.60;27.90
73277;DHT22;61501;43.316;5.372;2023-08-07T15:04:06;28.50;28.20
73277;DHT22;61501;43.316;5.372;2023-08-07T15:06:32;28.40;28.20
73277;DHT22;61501;43.316;5.372;2023-08-07T15:08:58;28.50;28.80
73277;DHT22;61501;43.316;5.372;2023-08-07T15:11:24;28.50;28.50
73277;DHT22;61501;43.316;5.372;2023-08-07T15:13:50;28.60;27.80
73277;DHT22;61501;43.316;5.372;2023-08-07T15:16:16;28.70;28.10
73277;DHT22;61501;43.316;5.372;2023-08-07T15:18:41;28.60;27.70
73277;DHT22;61501;43.316;5.372;2023-08-07T15:21:07;28.30;28.00
73277;DHT22;61501;43.316;5.372;2023-08-07T15:23:33;28.90;28.30
73277;DHT22;61501;43.316;5.372;2023-08-07T15:25:59;28.80;28.20
73277;DHT22;61501;43.316;5.372;2023-08-07T15:28:25;28.70;28.10
73277;DHT22;61501;43.316;5.372;2023-08-07T15:30:50;28.50;27.80
73277;DHT22;61501;43.316;5.372;2023-08-07T15:33:17;28.80;27.20